• Join FlightAware (Why Join?)
  • Login
  • US Flag 
10:22PM EDT


 

Airport Tracker/Info


-or-


 

Live Flight TrackerFlight Track Log ✈ AVA28 ✈ 12-Jun-2013 ✈ SKBO / BOG - KMCO

Flight Track Log - Related Links

Times and Time Zones

All times are in EDT time to prevent confusion due to time zone crossing. See the AVA28 flight status page for this flight to view local times or setup timezone preferences in your user account.

Time Position Orientation Groundspeed Altitude Reporting Facility
EDT Latitude Longitude Course Direction KTS MPH feet Rate Location/Type
02:42PM 24.8625 -79.4286 345° North 452 520 36,000  Level Miami Center
02:43PM 24.9853 -79.4700 343° North 452 520 36,000  Level Miami Center
02:44PM 25.1033 -79.5161 341° North 452 520 36,000  Level Miami Center
02:45PM 25.2239 -79.5603 342° North 452 520 36,000 -60 Level Miami Center
02:46PM 25.3442 -79.6042 342° North 452 520 35,900 -60 Descending Miami Center
02:47PM 25.4603 -79.6483 341° North 446 513 35,900  Level Miami Center
02:48PM 24.8312 -80.0760 345° North  Level Estimated
02:48PM 25.5744 -79.6900 342° North 446 513 35,900  Level Miami Center
02:49PM 25.6906 -79.7342 341° North 441 507 35,900 -180 Level Miami Center
02:50PM 25.8089 -79.7786 341° North 441 507 35,600 -660 Descending Miami Center
02:51PM 25.9292 -79.8231 342° North 441 507 34,600 -960 Descending Miami Center
02:52PM 26.0514 -79.8678 342° North 446 513 33,700 -960 Descending Miami Center
02:53PM 26.1675 -79.9125 341° North 451 519 32,700 -1,020 Descending Miami Center
02:54PM 26.2878 -79.9594 341° North 451 519 31,700 -1,020 Descending Miami Center
02:55PM 26.3914 -79.9992 341° North 437 503 30,700 -1,020 Descending Miami Center
02:56PM 26.5178 -80.0467 341° North 432 497 29,700 -960 Descending Miami Center
02:57PM 26.6169 -80.0867 340° North 427 491 28,800 -1,020 Descending Miami Center
02:58PM 26.7475 -80.1344 342° North 433 498 27,700 -1,020 Descending Miami Center
02:59PM 26.8406 -80.1742 339° North 427 491 26,800 -960 Descending Miami Center
03:00PM 26.9461 -80.2144 341° North 404 465 25,800 -1,020 Descending Miami Center
03:01PM 27.0497 -80.2525 342° North 398 458 24,800 -900 Descending Miami Center
03:02PM 27.1511 -80.2906 342° North 386 444 24,000 -720 Descending Miami Center
03:03PM 27.2506 -80.3283 341° North 380 437 23,400 -840 Descending Miami Center
03:04PM 27.3411 -80.3781 334° Northwest 375 432 22,400 -960 Descending Miami Center
03:05PM 27.4119 -80.4667 312° West 369 425 21,500 -1,140 Descending Miami Center
03:06PM 27.4725 -80.5575 307° West 369 425 20,200 -1,440 Descending Miami Center
03:07PM 27.5069 -80.6686 289° West 369 425 18,700 -1,200 Descending Miami Center
03:08PM 27.5825 -80.7392 320° Northwest 335 386 17,800 -1,020 Descending Miami Center
03:09PM 27.6594 -80.8214 317° Northwest 342 394 16,700 -1,020 Descending Miami Center
03:10PM 27.7225 -80.8869 317° Northwest 342 394 15,800 -1,320 Descending Miami Center
03:12PM 27.8500 -81.0167 318° Northwest 335 386 13,200 -1,560 Descending Orlando TRACON
03:13PM 27.9167 -81.0833 319° Northwest 328 377 11,600 -1,140 Descending Orlando TRACON
03:14PM 28.0000 -81.1333 332° Northwest 325 374 11,000 -600 Descending Orlando TRACON
03:15PM 28.0833 -81.1667 341° North 315 362 10,400 -600 Descending Orlando TRACON
03:16PM 28.1667 -81.1833 350° North 283 326 9,900 -540 Descending Orlando TRACON
03:17PM 28.2500 -81.1833 360° North 286 329 9,400 -480 Descending Orlando TRACON
03:18PM 28.3167 -81.1833 360° North 284 327 9,000 -240 Descending Orlando TRACON
03:19PM 28.4000 -81.1833 360° North 287 330 9,000 -360 Level Orlando TRACON
03:20PM 28.4667 -81.1833 360° North 252 290 8,300 -1,380 Descending Orlando TRACON
03:21PM 28.5333 -81.1833 360° North 250 288 6,300 -1,920 Descending Orlando TRACON
03:22PM 28.6000 -81.1833 360° North 242 278 4,500 -1,200 Descending Orlando TRACON
03:23PM 28.6500 -81.2167 330° Northwest 208 239 4,000 -300 Descending Orlando TRACON
03:24PM 28.6333 -81.2833 254° West 208 239 4,000 -300 Level Orlando TRACON
03:25PM 28.5833 -81.2833 180° South 191 220 3,400 -960 Descending Orlando TRACON
03:26PM 28.5333 -81.2833 180° South 189 217 2,100 -1,260 Descending Orlando TRACON
03:27PM 28.4833 -81.2833 180° South 144 166 800 -1,200 Descending Orlando TRACON